createdAt,value
2022-10-15T00:02:06.694Z,81.82
2022-10-15T00:07:05.405Z,81.65
2022-10-15T00:12:04.357Z,82.08
2022-10-15T00:17:03.080Z,81.76
2022-10-15T00:27:05.903Z,81.94
2022-10-15T00:32:04.695Z,81.67
2022-10-15T00:37:03.505Z,81.93
2022-10-15T00:42:02.921Z,81.82
2022-10-15T00:47:18.989Z,82.02
2022-10-15T00:52:23.804Z,81.57
2022-10-15T00:57:24.971Z,82.10
2022-10-15T01:02:23.840Z,82.23
2022-10-15T01:07:22.843Z,81.69
2022-10-15T01:12:49.499Z,81.36
2022-10-15T01:18:26.811Z,81.74
2022-10-15T01:23:54.979Z,80.95
2022-10-15T01:28:59.781Z,81.63
2022-10-15T01:39:43.051Z,83.11
2022-10-15T01:44:52.537Z,83.14
2022-10-15T01:50:13.837Z,83.99
2022-10-15T01:55:15.503Z,83.92
2022-10-15T02:00:14.395Z,83.20
2022-10-15T02:05:24.329Z,83.39
2022-10-15T02:10:34.729Z,83.71
2022-10-15T02:15:45.927Z,83.25
2022-10-15T02:20:58.533Z,84.14
2022-10-15T02:32:54.218Z,83.42
2022-10-15T02:37:56.122Z,82.75
2022-10-15T02:42:56.273Z,83.36
2022-10-15T02:47:55.520Z,83.14
2022-10-15T02:52:56.093Z,83.42
2022-10-15T02:57:54.754Z,82.93
2022-10-15T03:02:53.822Z,82.89
2022-10-15T03:07:52.946Z,82.64
2022-10-15T03:12:51.997Z,82.92
2022-10-15T03:17:51.353Z,82.08
2022-10-15T03:22:50.198Z,82.93
2022-10-15T03:27:48.985Z,83.21
2022-10-15T03:32:56.360Z,83.00
2022-10-15T03:37:55.222Z,82.73
2022-10-15T03:42:56.491Z,82.82
2022-10-15T03:47:56.556Z,82.99
2022-10-15T03:52:58.309Z,83.12
2022-10-15T03:57:57.209Z,82.24
2022-10-15T04:02:56.138Z,82.75
2022-10-15T04:07:58.278Z,82.38
2022-10-15T04:12:58.771Z,82.18
2022-10-15T04:17:58.519Z,83.30
2022-10-15T04:22:59.826Z,82.53
2022-10-15T04:27:59.772Z,79.17
2022-10-15T04:32:58.676Z,77.37
2022-10-15T04:37:59.668Z,76.36
2022-10-15T04:43:01.890Z,76.15
2022-10-15T04:48:00.818Z,80.27
2022-10-15T04:52:59.663Z,81.59
2022-10-15T04:58:00.316Z,82.48
2022-10-15T05:03:02.904Z,83.24
2022-10-15T05:08:29.211Z,83.73
2022-10-15T05:13:48.557Z,83.61
2022-10-15T05:18:49.443Z,83.87
2022-10-15T05:23:50.263Z,83.71
2022-10-15T05:29:07.611Z,84.15
2022-10-15T05:34:08.339Z,84.22
2022-10-15T05:39:29.512Z,83.68
2022-10-15T05:44:28.599Z,84.04
2022-10-15T05:49:27.267Z,83.75
2022-10-15T05:54:36.332Z,83.23
2022-10-15T05:59:35.051Z,83.47
2022-10-15T06:04:35.713Z,83.08
2022-10-15T06:09:35.000Z,83.95
2022-10-15T06:14:33.709Z,83.39
2022-10-15T06:19:33.327Z,82.87
2022-10-15T06:24:32.038Z,82.82
2022-10-15T06:29:31.022Z,82.60
2022-10-15T06:34:33.434Z,82.37
2022-10-15T06:39:32.208Z,82.09
2022-10-15T06:44:30.863Z,81.93
2022-10-15T06:49:29.608Z,82.01
2022-10-15T06:54:28.373Z,81.49
2022-10-15T06:59:27.143Z,80.91
2022-10-15T07:04:27.498Z,80.95
2022-10-15T07:09:26.368Z,80.93
2022-10-15T07:14:25.080Z,80.42
2022-10-15T07:19:24.079Z,81.04
2022-10-15T07:24:22.771Z,80.44
2022-10-15T07:29:21.579Z,79.92
2022-10-15T07:34:20.542Z,80.08
2022-10-15T07:39:19.682Z,80.33
2022-10-15T07:44:18.429Z,78.87
2022-10-15T07:49:17.155Z,78.83
2022-10-15T07:54:17.112Z,78.72
2022-10-15T07:59:15.808Z,78.37
2022-10-15T08:04:14.446Z,78.01
2022-10-15T08:09:14.042Z,77.78
2022-10-15T08:14:12.899Z,78.10
2022-10-15T08:19:11.631Z,78.57
2022-10-15T08:24:10.523Z,79.28
2022-10-15T08:29:10.934Z,79.29
2022-10-15T08:34:09.815Z,78.45
2022-10-15T08:39:09.286Z,79.28
2022-10-15T08:44:20.323Z,79.03
2022-10-15T08:49:34.176Z,79.20
2022-10-15T08:54:35.553Z,78.92
2022-10-15T08:59:43.524Z,80.50
2022-10-15T09:04:53.627Z,80.48
2022-10-15T09:10:13.029Z,80.21
2022-10-15T09:15:23.968Z,79.61
2022-10-15T09:20:36.949Z,79.13
2022-10-15T09:25:36.977Z,78.50
2022-10-15T09:30:49.550Z,77.02
2022-10-15T09:36:06.829Z,77.70
2022-10-15T09:41:25.271Z,77.17
2022-10-15T09:46:23.945Z,75.78
2022-10-15T09:51:34.214Z,76.52
2022-10-15T09:56:39.674Z,76.57
2022-10-15T10:01:38.506Z,75.59
2022-10-15T10:06:52.328Z,76.03
2022-10-15T10:11:54.942Z,75.74
2022-10-15T10:17:20.502Z,74.75
2022-10-15T10:22:20.346Z,73.82
2022-10-15T10:27:27.967Z,74.07
2022-10-15T10:32:31.167Z,74.31
2022-10-15T10:37:42.551Z,74.81
2022-10-15T10:42:42.793Z,74.10
2022-10-15T10:47:44.173Z,74.09
2022-10-15T10:52:45.475Z,74.04
2022-10-15T10:57:50.760Z,72.98
2022-10-15T11:02:52.105Z,72.68
2022-10-15T11:08:12.644Z,72.89
2022-10-15T11:13:17.418Z,73.19
2022-10-15T11:18:48.075Z,74.16
2022-10-15T11:24:11.331Z,73.60
2022-10-15T11:29:28.804Z,72.92
2022-10-15T11:34:42.880Z,72.71
2022-10-15T11:39:55.163Z,73.40
2022-10-15T11:45:00.711Z,74.44
2022-10-15T11:50:33.205Z,73.34
2022-10-15T11:55:39.450Z,74.02
2022-10-15T12:00:53.932Z,74.21
2022-10-15T12:05:59.585Z,72.25
2022-10-15T12:11:25.058Z,70.97
2022-10-15T12:16:30.309Z,69.33
2022-10-15T12:21:44.250Z,70.34
2022-10-15T12:26:43.018Z,70.32
2022-10-15T12:31:44.394Z,69.15
2022-10-15T12:36:43.220Z,68.09
2022-10-15T12:41:45.432Z,68.88
2022-10-15T12:46:44.352Z,69.96
2022-10-15T12:51:43.322Z,71.26
2022-10-15T12:56:44.073Z,73.47
2022-10-15T13:01:42.701Z,75.16
2022-10-15T13:06:41.469Z,74.01
2022-10-15T13:16:55.908Z,73.99
2022-10-15T13:21:57.436Z,73.57
2022-10-15T13:27:00.753Z,72.76
2022-10-15T13:32:00.728Z,72.36
2022-10-15T13:37:01.837Z,71.79
2022-10-15T13:42:22.117Z,72.97
2022-10-15T13:47:48.452Z,74.11
2022-10-15T13:52:52.742Z,74.77
2022-10-15T13:57:57.183Z,74.07
2022-10-15T14:03:23.037Z,72.63
2022-10-15T14:08:50.046Z,73.94
2022-10-15T14:13:51.746Z,74.53
2022-10-15T14:18:57.351Z,73.53
2022-10-15T14:24:13.020Z,73.33
2022-10-15T14:29:39.076Z,72.96
2022-10-15T14:34:40.449Z,72.72
2022-10-15T14:39:39.384Z,73.67
2022-10-15T14:44:56.273Z,73.93
2022-10-15T14:49:59.988Z,74.50
2022-10-15T14:55:14.226Z,75.76
2022-10-15T15:00:35.909Z,75.52
2022-10-15T15:05:49.212Z,75.89
2022-10-15T15:15:53.650Z,76.90
2022-10-15T15:20:52.972Z,76.43
2022-10-15T15:25:52.510Z,76.76
2022-10-15T15:30:57.336Z,77.73
2022-10-15T15:36:00.892Z,78.46
2022-10-15T15:41:03.394Z,79.77
2022-10-15T15:46:02.156Z,80.22
2022-10-15T15:51:07.603Z,80.37
2022-10-15T15:56:06.724Z,80.66
2022-10-15T16:01:05.601Z,80.60
2022-10-15T16:06:06.684Z,80.98
2022-10-15T16:11:06.819Z,81.34
2022-10-15T16:16:05.815Z,81.59
2022-10-15T16:21:04.820Z,82.04
2022-10-15T16:26:03.468Z,82.16
2022-10-15T16:31:26.434Z,82.53
2022-10-15T16:36:28.571Z,83.01
2022-10-15T16:41:27.409Z,83.01
2022-10-15T16:46:26.173Z,83.09
2022-10-15T16:51:25.946Z,83.31
2022-10-15T16:56:29.447Z,83.91
2022-10-15T17:01:29.751Z,83.27
2022-10-15T17:06:30.942Z,82.95
2022-10-15T17:11:40.102Z,82.42
2022-10-15T17:16:40.395Z,82.86
2022-10-15T17:21:42.379Z,83.14
2022-10-15T17:26:42.975Z,83.27
2022-10-15T17:31:42.188Z,83.54
2022-10-15T17:36:45.598Z,83.27
2022-10-15T17:41:45.803Z,83.87
2022-10-15T17:46:44.692Z,83.73
2022-10-15T17:51:44.400Z,83.79
2022-10-15T17:56:43.122Z,83.95
2022-10-15T18:01:57.720Z,83.54
2022-10-15T18:06:57.942Z,83.78
2022-10-15T18:12:00.985Z,83.68
2022-10-15T18:17:02.332Z,83.52
2022-10-15T18:22:04.222Z,83.29
2022-10-15T18:27:02.915Z,83.56
2022-10-15T18:32:02.010Z,83.98
2022-10-15T18:37:01.656Z,83.09
2022-10-15T18:42:00.412Z,82.91
2022-10-15T18:46:59.209Z,82.28
2022-10-15T18:52:00.411Z,82.50
2022-10-15T18:57:05.677Z,82.64
2022-10-15T19:02:04.488Z,82.71
2022-10-15T19:07:05.129Z,82.93
2022-10-15T19:12:04.627Z,82.85
2022-10-15T19:17:03.508Z,82.69
2022-10-15T19:22:02.336Z,82.31
2022-10-15T19:27:01.040Z,82.42
2022-10-15T19:32:00.156Z,82.79
2022-10-15T19:36:58.888Z,82.90
2022-10-15T19:41:57.728Z,83.39
2022-10-15T19:46:56.614Z,83.79
2022-10-15T19:51:55.743Z,84.17
2022-10-15T19:56:54.410Z,84.27
2022-10-15T20:01:53.165Z,84.05
2022-10-15T20:06:52.937Z,83.97
2022-10-15T20:11:51.808Z,84.19
2022-10-15T20:16:50.705Z,84.13
2022-10-15T20:21:50.732Z,83.98
2022-10-15T20:26:50.564Z,83.78
2022-10-15T20:31:51.305Z,84.23
2022-10-15T20:36:53.629Z,84.01
2022-10-15T20:41:52.557Z,84.11
2022-10-15T20:47:02.621Z,83.59
2022-10-15T20:52:03.006Z,83.41
2022-10-15T20:57:02.378Z,84.04
2022-10-15T21:02:01.267Z,83.84
2022-10-15T21:07:00.099Z,83.36
2022-10-15T21:11:58.884Z,83.03
2022-10-15T21:16:57.839Z,83.26
2022-10-15T21:21:56.706Z,83.50
2022-10-15T21:26:56.366Z,83.94
2022-10-15T21:31:55.153Z,83.28
2022-10-15T21:36:55.317Z,83.87
2022-10-15T21:41:54.053Z,83.97
2022-10-15T21:46:52.782Z,83.75
2022-10-15T21:51:51.454Z,83.31
2022-10-15T21:56:50.182Z,83.03
2022-10-15T22:01:49.138Z,83.32
2022-10-15T22:06:48.270Z,83.43
2022-10-15T22:11:47.028Z,83.18
2022-10-15T22:16:45.835Z,83.35
2022-10-15T22:21:45.760Z,83.01
2022-10-15T22:26:47.812Z,83.29
2022-10-15T22:31:47.366Z,83.37
2022-10-15T22:36:46.591Z,83.42
2022-10-15T22:41:47.500Z,83.47
2022-10-15T22:46:49.343Z,83.53
2022-10-15T22:51:49.580Z,83.65
2022-10-15T22:56:49.538Z,83.55
2022-10-15T23:01:48.385Z,83.56
2022-10-15T23:06:47.119Z,83.64
2022-10-15T23:11:46.539Z,84.39
2022-10-15T23:16:47.281Z,84.48
2022-10-15T23:21:57.555Z,84.40
2022-10-15T23:26:56.299Z,84.90
2022-10-15T23:31:55.149Z,84.77
2022-10-15T23:36:53.952Z,85.36
2022-10-15T23:41:53.313Z,85.27
2022-10-15T23:46:52.325Z,85.38
2022-10-15T23:51:51.148Z,85.04
2022-10-15T23:56:49.838Z,85.09
